Flight Track Log - Related Links

Times and Time Zones

All times are in EDT time to prevent confusion due to time zone crossing. See the EJA122 flight status page for this flight to view local times or setup timezone preferences in your user account.

Time Position Orientation Groundspeed Altitude Reporting Facility
EDT Latitude Longitude Course Direction KTS MPH feet Rate Location/Type
Thu 10:02:21 AM 40.5011 -85.6683 326° Northwest 158 182 1,500  Level Chicago Center
Thu 10:03:03 AM 40.5275 -85.6914 326° Northwest 207 238 3,500 2,854 Climbing Chicago Center
Thu 10:04:04 AM 40.4764 -85.7297 210° Southwest 264 304 6,400 2,857 Climbing Chicago Center
Thu 10:05:09 AM 40.4056 -85.6825 153° Southeast 269 310 9,500 1,701 Climbing Chicago Center
Thu 10:06:11 AM 40.3308 -85.6231 149° Southeast 306 352 10,000 236 Climbing Chicago Center
Thu 10:07:16 AM 40.2406 -85.5531 149° Southeast 360 414 10,000 614 Level Indianapolis Center
Thu 10:08:18 AM 40.1378 -85.4703 148° Southeast 363 418 11,300 1,306 Climbing Indianapolis Center
Thu 10:09:20 AM 40.0514 -85.4011 148° Southeast 362 417 12,700 1,355 Climbing Indianapolis Center
Thu 10:10:22 AM 39.9642 -85.3311 148° Southeast 367 422 14,100 1,452 Climbing Indianapolis Center
Thu 10:11:24 AM 39.8778 -85.2642 149° Southeast 362 417 15,700 1,500 Climbing Indianapolis Center
Thu 10:12:26 AM 39.7922 -85.1956 148° Southeast 361 415 17,200 1,452 Climbing Indianapolis Center
Thu 10:13:28 AM 39.7089 -85.1303 149° Southeast 354 407 18,700 1,597 Climbing Indianapolis Center
Thu 10:14:30 AM 39.6056 -85.0492 149° Southeast 359 413 20,500 1,645 Climbing Indianapolis Center
Thu 10:15:32 AM 39.5192 -84.9817 149° Southeast 362 417 22,100 1,500 Climbing Indianapolis Center
Thu 10:16:34 AM 39.4319 -84.9136 149° Southeast 366 421 23,600 1,403 Climbing Indianapolis Center
Thu 10:17:36 AM 39.3372 -84.8392 149° Southeast 364 419 25,000 1,306 Climbing Indianapolis Center
Thu 10:18:38 AM 39.2456 -84.7686 149° Southeast 375 432 26,300 1,258 Climbing Indianapolis Center
Thu 10:19:40 AM 39.1539 -84.6969 149° Southeast 382 440 27,600 1,258 Climbing Indianapolis Center
Thu 10:20:42 AM 39.0639 -84.6267 149° Southeast 378 435 28,900 1,210 Climbing Indianapolis Center
Thu 10:21:44 AM 38.9728 -84.5572 149° Southeast 379 436 30,100 1,161 Climbing Indianapolis Center
Thu 10:22:46 AM 38.8831 -84.4889 149° Southeast 373 429 31,300 1,065 Climbing Indianapolis Center
Thu 10:23:48 AM 38.7764 -84.4075 149° Southeast 380 437 32,300 864 Climbing Indianapolis Center
Thu 10:24:51 AM 38.6819 -84.3372 150° Southeast 389 448 33,100 816 Climbing Indianapolis Center
Thu 10:25:53 AM 38.5964 -84.2722 149° Southeast 390 449 34,000 919 Climbing Indianapolis Center
Thu 10:26:55 AM 38.4953 -84.1719 142° Southeast 396 456 35,000 484 Climbing Indianapolis Center
Thu 10:27:57 AM 38.4033 -84.0894 145° Southeast 402 463 35,000  Level Indianapolis Center
Thu 10:28:59 AM 38.3006 -84.0175 151° Southeast 418 481 35,000  Level Indianapolis Center
Thu 10:30:01 AM 38.1925 -83.9461 153° Southeast 434 499 35,000  Level Indianapolis Center
Thu 10:31:03 AM 38.0831 -83.8742 153° Southeast 440 506 35,000  Level Indianapolis Center
Thu 10:32:05 AM 37.9550 -83.7872 152° Southeast 446 513 35,000  Level Indianapolis Center
Thu 10:33:07 AM 37.8431 -83.7125 152° Southeast 451 519 35,000  Level Indianapolis Center
Thu 10:34:09 AM 37.7311 -83.6394 153° Southeast 451 519 35,000  Level Indianapolis Center
Thu 10:35:11 AM 37.6208 -83.5536 148° Southeast 460 529 35,000  Level Indianapolis Center
Thu 10:36:13 AM 37.5164 -83.4544 143° Southeast 469 540 35,000  Level Indianapolis Center
Thu 10:37:15 AM 37.3947 -83.3431 144° Southeast 465 535 35,000  Level Indianapolis Center
Thu 10:38:17 AM 37.2906 -83.2469 144° Southeast 464 534 35,000  Level Indianapolis Center
Thu 10:39:19 AM 37.1864 -83.1503 144° Southeast 464 534 35,000  Level Indianapolis Center
Thu 10:40:21 AM 37.0822 -83.0525 143° Southeast 465 535 35,000  Level Indianapolis Center
Thu 10:41:23 AM 36.9775 -82.9614 145° Southeast 462 532 35,000  Level Indianapolis Center
Thu 10:42:25 AM 36.8572 -82.8936 156° South 472 543 35,000  Level Indianapolis Center
Thu 10:43:27 AM 36.7311 -82.8261 157° South 450 518 35,000  Level Indianapolis Center
Thu 10:44:24 AM 36.6147 -82.7636 157° South 447 514 35,000  Level Atlanta Center
Thu 10:45:24 AM 36.5014 -82.7036 157° South 442 509 35,000  Level Atlanta Center
Thu 10:46:24 AM 36.3861 -82.6436 157° South 437 503 35,000  Level Atlanta Center
Thu 10:47:24 AM 36.2750 -82.5811 156° South 437 503 35,000  Level Atlanta Center
Thu 10:48:23 AM 36.1614 -82.5214 157° South 442 509 35,000  Level Atlanta Center
Thu 10:49:23 AM 36.0481 -82.4619 157° South 442 509 35,000  Level Atlanta Center
Thu 10:50:23 AM 35.9325 -82.4000 157° South 442 509 35,000  Level Atlanta Center
Thu 10:51:23 AM 35.8211 -82.3408 157° South 442 509 35,000  Level Atlanta Center
Thu 10:52:24 AM 35.7183 -82.2867 157° South 442 509 35,000  Level Atlanta Center
Thu 10:53:24 AM 35.6069 -82.2303 158° South 437 503 35,000  Level Atlanta Center
Thu 10:54:23 AM 35.4869 -82.1692 157° South 451 519 35,000  Level Atlanta Center
Thu 10:55:23 AM 35.3672 -82.1083 157° South 458 527 35,000  Level Atlanta Center
Thu 10:56:24 AM 35.2514 -82.0447 156° South 458 527 35,000  Level Atlanta Center
Thu 10:57:24 AM 35.1336 -81.9867 158° South 458 527 35,000  Level Atlanta Center
Thu 10:58:23 AM 35.0136 -81.9289 158° South 458 527 35,000  Level Atlanta Center
Thu 10:59:24 AM 34.8878 -81.8939 167° South 458 527 35,000  Level Atlanta Center
Thu 11:00:24 AM 34.7536 -81.8594 168° South 458 527 35,000  Level Atlanta Center
Thu 11:02:26 AM 34.4992 -81.7892 167° South 474 545 35,000  Level Jacksonville Center
Thu 11:03:26 AM 34.3739 -81.7556 168° South 469 540 35,000  Level Jacksonville Center
Thu 11:04:26 AM 34.2503 -81.7244 168° South 464 534 35,000 -50 Level Jacksonville Center
Thu 11:05:26 AM 34.1228 -81.6936 169° South 464 534 34,900 -400 Descending Jacksonville Center
Thu 11:06:26 AM 33.9972 -81.6578 167° South 469 540 34,200 -450 Descending Jacksonville Center
Thu 11:07:26 AM 33.8697 -81.6269 169° South 469 540 34,000 -100 Descending Jacksonville Center
Thu 11:08:26 AM 33.7419 -81.5939 168° South 469 540 34,000  Level Jacksonville Center
Thu 11:09:26 AM 33.6122 -81.5608 168° South 469 540 34,000  Level Jacksonville Center
Thu 11:10:26 AM 33.4847 -81.5278 168° South 469 540 34,000  Level Jacksonville Center
Thu 11:11:26 AM 33.3569 -81.4975 169° South 469 540 34,000  Level Jacksonville Center
Thu 11:12:26 AM 33.2253 -81.4647 168° South 469 540 34,000  Level Jacksonville Center
Thu 11:13:26 AM 33.1017 -81.4394 170° South 469 540 34,000  Level Jacksonville Center
Thu 11:14:26 AM 32.9867 -81.4092 168° South 463 533 34,000  Level Jacksonville Center
Thu 11:15:26 AM 32.8631 -81.3767 168° South 463 533 34,000  Level Jacksonville Center
Thu 11:16:26 AM 32.7394 -81.3489 169° South 463 533 34,000  Level Jacksonville Center
Thu 11:17:26 AM 32.6033 -81.3144 168° South 463 533 34,000  Level Jacksonville Center
Thu 11:18:26 AM 32.4903 -81.2867 168° South 468 539 34,000  Level Jacksonville Center
Thu 11:19:26 AM 32.3606 -81.2522 167° South 474 545 34,000  Level Jacksonville Center
Thu 11:20:26 AM 32.2369 -81.2225 169° South 468 539 34,000  Level Jacksonville Center
Thu 11:21:26 AM 32.1114 -81.2003 171° South 468 539 34,000  Level Jacksonville Center
Thu 11:22:26 AM 31.9797 -81.1953 178° South 468 539 34,000  Level Jacksonville Center
Thu 11:23:26 AM 31.8356 -81.1881 178° South 468 539 34,000  Level Jacksonville Center
Thu 11:24:26 AM 31.7083 -81.1856 179° South 463 533 34,000  Level Jacksonville Center
Thu 11:25:26 AM 31.5892 -81.1828 179° South 463 533 34,000  Level Jacksonville Center
Thu 11:26:26 AM 31.4472 -81.1781 178° South 468 539 34,000  Level Jacksonville Center
Thu 11:27:26 AM 31.3156 -81.1758 179° South 468 539 34,000  Level Jacksonville Center
Thu 11:28:26 AM 31.1861 -81.1708 178° South 468 539 34,000 -250 Level Jacksonville Center
Thu 11:29:26 AM 31.0567 -81.1683 179° South 475 547 33,500 -850 Descending Jacksonville Center
Thu 11:30:26 AM 30.9292 -81.1633 178° South 469 540 32,300 -1,250 Descending Jacksonville Center
Thu 11:31:26 AM 30.8017 -81.1583 178° South 464 534 31,000 -1,250 Descending Jacksonville Center
Thu 11:32:26 AM 30.6681 -81.1536 178° South 464 534 29,800 -1,200 Descending Jacksonville Center
Thu 11:33:26 AM 30.5364 -81.1511 179° South 470 541 28,600 -1,250 Descending Jacksonville Center
Thu 11:34:26 AM 30.4050 -81.1464 178° South 475 547 27,300 -1,250 Descending Jacksonville Center
Thu 11:35:26 AM 30.2733 -81.1417 178° South 475 547 26,100 -1,300 Descending Jacksonville Center
Thu 11:36:26 AM 30.1439 -81.1392 179° South 470 541 24,700 -1,650 Descending Jacksonville Center
Thu 11:37:26 AM 30.0164 -81.1342 178° South 470 541 22,800 -1,900 Descending Jacksonville Center
Thu 11:38:26 AM 29.8931 -81.1294 178° South 463 533 20,900 -1,850 Descending Jacksonville Center
Thu 11:39:26 AM 29.7761 -81.1292 180° South 450 518 19,100 -2,410 Descending Jacksonville Center
Thu 11:40:23 AM 29.6758 -81.1236 177° South 379 436 16,200 -3,226 Descending Jacksonville Center
Thu 11:41:12 AM 29.5925 -81.1228 180° South 347 399 13,400 -2,945 Descending Jacksonville Center
Thu 11:42:13 AM 29.4942 -81.1197 178° South 342 394 10,800 -2,262 Descending Jacksonville Center
Thu 11:43:14 AM 29.4086 -81.1167 178° South 297 342 8,800 -2,066 Descending Jacksonville Center
Thu 11:44:15 AM 29.3294 -81.1181 181° South 255 293 6,600 -1,377 Descending Jacksonville Center
Thu 11:45:16 AM 29.2606 -81.1239 184° South 241 277 6,000 -550 Descending Jacksonville Center
Thu 11:46:26 AM 29.1836 -81.1372 189° South 252 290 5,400 -462 Descending Jacksonville Center
Thu 11:47:26 AM 29.1128 -81.1600 196° South 252 290 5,000 -200 Descending Jacksonville Center
Thu 11:48:26 AM 29.0442 -81.1706 188° South 257 296 5,000  Level Jacksonville Center
Thu 11:49:26 AM 28.9836 -81.1789 187° South 245 282 5,000 -50 Level Jacksonville Center
Thu 11:50:26 AM 28.9250 -81.1681 171° South 227 261 4,900 -600 Descending Jacksonville Center
Thu 11:51:26 AM 28.8644 -81.1572 171° South 222 255 3,800 -1,125 Descending Jacksonville Center
Thu 11:52:02 AM 28.8333 -81.1500 169° South 210 242 3,100 -529 Descending Orlando TRACON
Thu 11:53:08 AM 28.7667 -81.1333 168° South 218 251 2,900 -714 Descending Orlando TRACON
Thu 11:54:08 AM 28.7000 -81.1667 204° Southwest 214 246 1,600 -700 Descending Orlando TRACON
Thu 11:55:08 AM 28.6500 -81.2000 210° Southwest 209 241 1,500 -50 Descending Orlando TRACON
Thu 11:56:08 AM 28.6000 -81.2167 196° South 153 176 1,500  Level Orlando TRACON
Thu 11:57:03 AM 28.5833 -81.2333 221° Southwest 113 130 1,500 -248 Level Orlando TRACON
Thu 11:58:09 AM 28.5667 -81.2833 249° West 120 138 1,000 -571 Descending Orlando TRACON
Thu 11:59:09 AM 28.5500 -81.3167 240° Southwest 131 151 300 -700 Descending Orlando TRACON
Thu 12:01:00 PM 28.5333 -81.3167 221° Southwest  Level FlightAware Approximate
Thu 12:08:00 PM 28.5455 -81.3329 221° Southwest  Level Estimated
Thu 12:09:00 PM 28.5455 -81.3329 221° Southwest  Level Estimated
Thu 12:10:00 PM 28.5455 -81.3329 221° Southwest  Level Estimated

Login

Don't have an account? Register now (free) for customized features, flight alerts, and more!